sensor_id;sensor_type;location;lat;lon;timestamp;temperature;humidity
61151;DHT22;47029;50.994;2.876;2022-11-20T00:00:00;6.70;99.90
61151;DHT22;47029;50.994;2.876;2022-11-20T00:02:26;6.60;99.90
61151;DHT22;47029;50.994;2.876;2022-11-20T00:04:52;7.90;99.90
61151;DHT22;47029;50.994;2.876;2022-11-20T00:07:18;6.30;99.90
61151;DHT22;47029;50.994;2.876;2022-11-20T00:09:44;6.30;99.90
61151;DHT22;47029;50.994;2.876;2022-11-20T00:12:10;5.90;99.90
61151;DHT22;47029;50.994;2.876;2022-11-20T00:14:36;6.10;99.90
61151;DHT22;47029;50.994;2.876;2022-11-20T00:17:02;7.80;99.90
61151;DHT22;47029;50.994;2.876;2022-11-20T00:19:28;5.90;99.90
61151;DHT22;47029;50.994;2.876;2022-11-20T00:21:54;6.00;99.90
61151;DHT22;47029;50.994;2.876;2022-11-20T00:24:22;6.00;99.90
61151;DHT22;47029;50.994;2.876;2022-11-20T00:26:48;6.10;99.90
61151;DHT22;47029;50.994;2.876;2022-11-20T00:29:14;7.30;99.90
61151;DHT22;47029;50.994;2.876;2022-11-20T00:31:41;6.20;99.90
61151;DHT22;47029;50.994;2.876;2022-11-20T00:34:07;6.10;99.90
61151;DHT22;47029;50.994;2.876;2022-11-20T00:36:34;6.40;99.90
61151;DHT22;47029;50.994;2.876;2022-11-20T00:38:59;6.50;99.90
61151;DHT22;47029;50.994;2.876;2022-11-20T00:41:29;6.40;99.90
61151;DHT22;47029;50.994;2.876;2022-11-20T00:43:56;7.60;99.90
61151;DHT22;47029;50.994;2.876;2022-11-20T00:46:23;6.40;99.90
61151;DHT22;47029;50.994;2.876;2022-11-20T00:48:50;6.40;99.90
61151;DHT22;47029;50.994;2.876;2022-11-20T00:51:21;6.70;99.90
61151;DHT22;47029;50.994;2.876;2022-11-20T00:53:48;6.60;99.90
61151;DHT22;47029;50.994;2.876;2022-11-20T00:56:16;7.60;99.90
61151;DHT22;47029;50.994;2.876;2022-11-20T00:58:43;6.80;99.90
61151;DHT22;47029;50.994;2.876;2022-11-20T01:01:15;7.40;99.90
61151;DHT22;47029;50.994;2.876;2022-11-20T01:03:44;6.70;99.90
61151;DHT22;47029;50.994;2.876;2022-11-20T01:06:13;6.90;99.90
61151;DHT22;47029;50.994;2.876;2022-11-20T01:08:40;6.90;99.90
61151;DHT22;47029;50.994;2.876;2022-11-20T01:11:15;8.30;99.90
61151;DHT22;47029;50.994;2.876;2022-11-20T01:13:42;8.30;99.90
61151;DHT22;47029;50.994;2.876;2022-11-20T01:16:21;7.00;99.90
61151;DHT22;47029;50.994;2.876;2022-11-20T01:18:50;7.10;99.90
61151;DHT22;47029;50.994;2.876;2022-11-20T01:21:24;7.30;99.90
61151;DHT22;47029;50.994;2.876;2022-11-20T01:23:51;7.00;99.90
61151;DHT22;47029;50.994;2.876;2022-11-20T01:26:20;8.40;99.90
61151;DHT22;47029;50.994;2.876;2022-11-20T01:28:47;8.20;99.90
61151;DHT22;47029;50.994;2.876;2022-11-20T01:31:22;7.20;99.90
61151;DHT22;47029;50.994;2.876;2022-11-20T01:33:51;7.00;99.90
61151;DHT22;47029;50.994;2.876;2022-11-20T01:36:18;6.90;99.90
61151;DHT22;47029;50.994;2.876;2022-11-20T01:38:44;7.10;99.90
61151;DHT22;47029;50.994;2.876;2022-11-20T01:41:11;8.40;99.90
61151;DHT22;47029;50.994;2.876;2022-11-20T01:43:58;7.90;99.90
61151;DHT22;47029;50.994;2.876;2022-11-20T01:46:24;7.30;99.90
61151;DHT22;47029;50.994;2.876;2022-11-20T01:53:45;7.20;99.90
61151;DHT22;47029;50.994;2.876;2022-11-20T01:56:13;7.70;99.90
61151;DHT22;47029;50.994;2.876;2022-11-20T01:58:47;7.20;99.90
61151;DHT22;47029;50.994;2.876;2022-11-20T02:01:14;7.30;99.90
61151;DHT22;47029;50.994;2.876;2022-11-20T02:03:41;7.10;99.90
61151;DHT22;47029;50.994;2.876;2022-11-20T02:06:19;7.00;99.90
61151;DHT22;47029;50.994;2.876;2022-11-20T02:08:46;6.90;99.90
61151;DHT22;47029;50.994;2.876;2022-11-20T02:11:12;8.40;99.90
61151;DHT22;47029;50.994;2.876;2022-11-20T02:13:38;8.30;99.90
61151;DHT22;47029;50.994;2.876;2022-11-20T02:16:29;7.20;99.90
61151;DHT22;47029;50.994;2.876;2022-11-20T02:18:59;7.10;99.90
61151;DHT22;47029;50.994;2.876;2022-11-20T02:21:35;8.70;99.90
61151;DHT22;47029;50.994;2.876;2022-11-20T02:24:07;7.20;99.90
61151;DHT22;47029;50.994;2.876;2022-11-20T02:29:10;7.10;99.90
61151;DHT22;47029;50.994;2.876;2022-11-20T02:31:38;7.20;99.90
61151;DHT22;47029;50.994;2.876;2022-11-20T02:34:06;8.70;99.90
61151;DHT22;47029;50.994;2.876;2022-11-20T02:36:33;5.50;99.90
61151;DHT22;47029;50.994;2.876;2022-11-20T02:39:01;7.20;99.90
61151;DHT22;47029;50.994;2.876;2022-11-20T02:41:36;8.00;99.90
61151;DHT22;47029;50.994;2.876;2022-11-20T02:44:03;9.10;99.90
61151;DHT22;47029;50.994;2.876;2022-11-20T02:46:29;7.30;99.90
61151;DHT22;47029;50.994;2.876;2022-11-20T02:48:54;7.30;99.90
61151;DHT22;47029;50.994;2.876;2022-11-20T02:51:20;8.40;99.90
61151;DHT22;47029;50.994;2.876;2022-11-20T02:53:46;7.20;99.90
61151;DHT22;47029;50.994;2.876;2022-11-20T02:56:12;7.20;99.90
61151;DHT22;47029;50.994;2.876;2022-11-20T02:58:38;7.20;99.90
61151;DHT22;47029;50.994;2.876;2022-11-20T03:01:05;8.40;99.90
61151;DHT22;47029;50.994;2.876;2022-11-20T03:03:30;7.20;99.90
61151;DHT22;47029;50.994;2.876;2022-11-20T03:05:59;7.50;99.90
61151;DHT22;47029;50.994;2.876;2022-11-20T03:08:25;8.50;99.90
61151;DHT22;47029;50.994;2.876;2022-11-20T03:10:51;7.10;99.90
61151;DHT22;47029;50.994;2.876;2022-11-20T03:13:17;7.00;99.90
61151;DHT22;47029;50.994;2.876;2022-11-20T03:15:43;8.20;99.90
61151;DHT22;47029;50.994;2.876;2022-11-20T03:18:09;7.00;99.90
61151;DHT22;47029;50.994;2.876;2022-11-20T03:20:35;7.10;99.90
61151;DHT22;47029;50.994;2.876;2022-11-20T03:23:01;6.80;99.90
61151;DHT22;47029;50.994;2.876;2022-11-20T03:25:28;8.50;99.90
61151;DHT22;47029;50.994;2.876;2022-11-20T03:27:54;8.50;99.90
61151;DHT22;47029;50.994;2.876;2022-11-20T03:30:20;7.50;99.90
61151;DHT22;47029;50.994;2.876;2022-11-20T03:32:47;6.80;99.90
61151;DHT22;47029;50.994;2.876;2022-11-20T03:35:12;7.60;99.90
61151;DHT22;47029;50.994;2.876;2022-11-20T03:37:39;6.70;99.90
61151;DHT22;47029;50.994;2.876;2022-11-20T03:40:05;6.80;99.90
61151;DHT22;47029;50.994;2.876;2022-11-20T03:42:32;6.80;99.90
61151;DHT22;47029;50.994;2.876;2022-11-20T03:45:11;6.80;99.90
61151;DHT22;47029;50.994;2.876;2022-11-20T03:47:37;6.90;99.90
61151;DHT22;47029;50.994;2.876;2022-11-20T03:50:04;6.80;99.90
61151;DHT22;47029;50.994;2.876;2022-11-20T03:52:30;6.80;99.90
61151;DHT22;47029;50.994;2.876;2022-11-20T03:54:56;6.10;99.90
61151;DHT22;47029;50.994;2.876;2022-11-20T03:57:22;8.50;99.90
61151;DHT22;47029;50.994;2.876;2022-11-20T03:59:48;7.70;99.90
61151;DHT22;47029;50.994;2.876;2022-11-20T04:02:14;6.80;99.90
61151;DHT22;47029;50.994;2.876;2022-11-20T04:04:40;6.70;99.90
61151;DHT22;47029;50.994;2.876;2022-11-20T04:07:05;6.70;99.90
61151;DHT22;47029;50.994;2.876;2022-11-20T04:09:32;6.70;99.90
61151;DHT22;47029;50.994;2.876;2022-11-20T04:11:57;7.20;99.90
61151;DHT22;47029;50.994;2.876;2022-11-20T04:14:24;8.40;99.90
61151;DHT22;47029;50.994;2.876;2022-11-20T04:16:49;8.00;99.90
61151;DHT22;47029;50.994;2.876;2022-11-20T04:19:16;6.80;99.90
61151;DHT22;47029;50.994;2.876;2022-11-20T04:21:43;6.60;99.90
61151;DHT22;47029;50.994;2.876;2022-11-20T04:24:10;6.60;99.90
61151;DHT22;47029;50.994;2.876;2022-11-20T04:26:36;6.70;99.90
61151;DHT22;47029;50.994;2.876;2022-11-20T04:29:03;6.90;99.90
61151;DHT22;47029;50.994;2.876;2022-11-20T04:31:31;6.70;99.90
61151;DHT22;47029;50.994;2.876;2022-11-20T04:34:03;7.40;99.90
61151;DHT22;47029;50.994;2.876;2022-11-20T04:36:30;6.60;99.90
61151;DHT22;47029;50.994;2.876;2022-11-20T04:38:58;6.60;99.90
61151;DHT22;47029;50.994;2.876;2022-11-20T04:41:27;6.50;99.90
61151;DHT22;47029;50.994;2.876;2022-11-20T04:43:56;6.60;99.90
61151;DHT22;47029;50.994;2.876;2022-11-20T04:46:25;6.60;99.90
61151;DHT22;47029;50.994;2.876;2022-11-20T04:48:52;6.60;99.90
61151;DHT22;47029;50.994;2.876;2022-11-20T04:51:18;6.50;99.90
61151;DHT22;47029;50.994;2.876;2022-11-20T04:53:44;6.50;99.90
61151;DHT22;47029;50.994;2.876;2022-11-20T04:56:11;8.30;99.90
61151;DHT22;47029;50.994;2.876;2022-11-20T04:58:38;5.20;99.90
61151;DHT22;47029;50.994;2.876;2022-11-20T05:03:30;6.60;99.90
61151;DHT22;47029;50.994;2.876;2022-11-20T05:05:59;6.50;99.90
61151;DHT22;47029;50.994;2.876;2022-11-20T05:08:25;6.70;99.90
61151;DHT22;47029;50.994;2.876;2022-11-20T05:10:51;6.70;99.90
61151;DHT22;47029;50.994;2.876;2022-11-20T05:13:19;7.40;99.90
61151;DHT22;47029;50.994;2.876;2022-11-20T05:15:45;6.70;99.90
61151;DHT22;47029;50.994;2.876;2022-11-20T05:18:13;6.80;99.90
61151;DHT22;47029;50.994;2.876;2022-11-20T05:20:39;8.40;99.90
61151;DHT22;47029;50.994;2.876;2022-11-20T05:23:05;6.80;99.90
61151;DHT22;47029;50.994;2.876;2022-11-20T05:25:31;7.60;99.90
61151;DHT22;47029;50.994;2.876;2022-11-20T05:27:57;6.00;99.90
61151;DHT22;47029;50.994;2.876;2022-11-20T05:30:23;8.00;99.90
61151;DHT22;47029;50.994;2.876;2022-11-20T05:32:49;6.90;99.90
61151;DHT22;47029;50.994;2.876;2022-11-20T05:35:15;6.90;99.90
61151;DHT22;47029;50.994;2.876;2022-11-20T05:37:41;5.80;99.90
61151;DHT22;47029;50.994;2.876;2022-11-20T05:40:08;5.60;99.90
61151;DHT22;47029;50.994;2.876;2022-11-20T05:42:33;6.80;99.90
61151;DHT22;47029;50.994;2.876;2022-11-20T05:45:01;6.80;99.90
61151;DHT22;47029;50.994;2.876;2022-11-20T05:47:28;6.80;99.90
61151;DHT22;47029;50.994;2.876;2022-11-20T05:49:56;6.70;99.90
61151;DHT22;47029;50.994;2.876;2022-11-20T05:52:23;6.70;99.90
61151;DHT22;47029;50.994;2.876;2022-11-20T05:54:49;6.70;99.90
61151;DHT22;47029;50.994;2.876;2022-11-20T05:57:14;6.90;99.90
61151;DHT22;47029;50.994;2.876;2022-11-20T05:59:41;8.30;99.90
61151;DHT22;47029;50.994;2.876;2022-11-20T06:02:07;6.70;99.90
61151;DHT22;47029;50.994;2.876;2022-11-20T06:04:37;6.60;99.90
61151;DHT22;47029;50.994;2.876;2022-11-20T06:07:04;5.80;99.90
61151;DHT22;47029;50.994;2.876;2022-11-20T06:09:30;6.80;99.90
61151;DHT22;47029;50.994;2.876;2022-11-20T06:11:55;5.40;99.90
61151;DHT22;47029;50.994;2.876;2022-11-20T06:14:21;6.80;99.90
61151;DHT22;47029;50.994;2.876;2022-11-20T06:16:47;7.50;99.90
61151;DHT22;47029;50.994;2.876;2022-11-20T06:19:12;6.90;99.90
61151;DHT22;47029;50.994;2.876;2022-11-20T06:21:38;6.80;99.90
61151;DHT22;47029;50.994;2.876;2022-11-20T06:24:05;5.70;99.90
61151;DHT22;47029;50.994;2.876;2022-11-20T06:26:31;6.90;99.90
61151;DHT22;47029;50.994;2.876;2022-11-20T06:28:57;7.60;99.90
61151;DHT22;47029;50.994;2.876;2022-11-20T06:31:24;6.50;99.90
61151;DHT22;47029;50.994;2.876;2022-11-20T06:33:52;7.10;99.90
61151;DHT22;47029;50.994;2.876;2022-11-20T06:36:20;7.00;99.90
61151;DHT22;47029;50.994;2.876;2022-11-20T06:38:47;7.40;99.90
61151;DHT22;47029;50.994;2.876;2022-11-20T06:41:16;7.20;99.90
61151;DHT22;47029;50.994;2.876;2022-11-20T06:43:42;7.20;99.90
61151;DHT22;47029;50.994;2.876;2022-11-20T06:46:11;7.20;99.90
61151;DHT22;47029;50.994;2.876;2022-11-20T06:48:37;8.50;99.90
61151;DHT22;47029;50.994;2.876;2022-11-20T06:51:04;7.30;99.90
61151;DHT22;47029;50.994;2.876;2022-11-20T06:53:31;7.30;99.90
61151;DHT22;47029;50.994;2.876;2022-11-20T06:55:58;7.40;99.90
61151;DHT22;47029;50.994;2.876;2022-11-20T06:58:26;8.80;99.90
61151;DHT22;47029;50.994;2.876;2022-11-20T07:00:53;7.50;99.90
61151;DHT22;47029;50.994;2.876;2022-11-20T07:03:19;7.50;99.90
61151;DHT22;47029;50.994;2.876;2022-11-20T07:05:46;7.50;99.90
61151;DHT22;47029;50.994;2.876;2022-11-20T07:08:12;7.70;99.90
61151;DHT22;47029;50.994;2.876;2022-11-20T07:10:38;7.60;99.90
61151;DHT22;47029;50.994;2.876;2022-11-20T07:13:04;8.60;99.90
61151;DHT22;47029;50.994;2.876;2022-11-20T07:15:30;7.70;99.90
61151;DHT22;47029;50.994;2.876;2022-11-20T07:17:59;8.50;99.90
61151;DHT22;47029;50.994;2.876;2022-11-20T07:20:27;7.80;99.90
61151;DHT22;47029;50.994;2.876;2022-11-20T07:22:55;7.10;99.90
61151;DHT22;47029;50.994;2.876;2022-11-20T07:25:21;7.50;99.90
61151;DHT22;47029;50.994;2.876;2022-11-20T07:27:47;7.70;99.90
61151;DHT22;47029;50.994;2.876;2022-11-20T07:30:16;7.60;99.90
61151;DHT22;47029;50.994;2.876;2022-11-20T07:32:42;7.60;99.90
61151;DHT22;47029;50.994;2.876;2022-11-20T07:35:11;7.50;99.90
61151;DHT22;47029;50.994;2.876;2022-11-20T07:37:37;7.60;99.90
61151;DHT22;47029;50.994;2.876;2022-11-20T07:40:03;7.60;99.90
61151;DHT22;47029;50.994;2.876;2022-11-20T07:42:30;7.60;99.90
61151;DHT22;47029;50.994;2.876;2022-11-20T07:44:56;7.50;99.90
61151;DHT22;47029;50.994;2.876;2022-11-20T07:47:22;7.70;99.90
61151;DHT22;47029;50.994;2.876;2022-11-20T07:49:48;7.50;99.90
61151;DHT22;47029;50.994;2.876;2022-11-20T07:52:14;7.90;99.90
61151;DHT22;47029;50.994;2.876;2022-11-20T07:54:40;7.70;99.90
61151;DHT22;47029;50.994;2.876;2022-11-20T07:57:06;7.60;99.90
61151;DHT22;47029;50.994;2.876;2022-11-20T07:59:33;7.70;99.90
61151;DHT22;47029;50.994;2.876;2022-11-20T08:01:59;7.60;99.90
61151;DHT22;47029;50.994;2.876;2022-11-20T08:04:25;7.60;99.90
61151;DHT22;47029;50.994;2.876;2022-11-20T08:06:52;7.70;99.90
61151;DHT22;47029;50.994;2.876;2022-11-20T08:09:18;8.70;99.90
61151;DHT22;47029;50.994;2.876;2022-11-20T08:11:44;7.70;99.90
61151;DHT22;47029;50.994;2.876;2022-11-20T08:14:28;7.70;99.90
61151;DHT22;47029;50.994;2.876;2022-11-20T08:16:54;6.80;99.90
61151;DHT22;47029;50.994;2.876;2022-11-20T08:19:20;9.50;99.90
61151;DHT22;47029;50.994;2.876;2022-11-20T08:21:46;7.60;99.90
61151;DHT22;47029;50.994;2.876;2022-11-20T08:24:13;7.70;99.90
61151;DHT22;47029;50.994;2.876;2022-11-20T08:26:39;7.70;99.90
61151;DHT22;47029;50.994;2.876;2022-11-20T08:29:06;8.10;99.90
61151;DHT22;47029;50.994;2.876;2022-11-20T08:31:32;8.10;99.90
61151;DHT22;47029;50.994;2.876;2022-11-20T08:33:58;7.20;99.90
61151;DHT22;47029;50.994;2.876;2022-11-20T08:36:24;8.00;99.90
61151;DHT22;47029;50.994;2.876;2022-11-20T08:38:52;7.90;99.90
61151;DHT22;47029;50.994;2.876;2022-11-20T08:41:18;8.10;99.90
61151;DHT22;47029;50.994;2.876;2022-11-20T08:43:52;7.90;99.90
61151;DHT22;47029;50.994;2.876;2022-11-20T08:46:19;7.90;99.90
61151;DHT22;47029;50.994;2.876;2022-11-20T08:48:45;8.00;99.90
61151;DHT22;47029;50.994;2.876;2022-11-20T08:51:11;8.20;99.90
61151;DHT22;47029;50.994;2.876;2022-11-20T08:53:38;8.20;99.90
61151;DHT22;47029;50.994;2.876;2022-11-20T08:56:04;8.00;99.90
61151;DHT22;47029;50.994;2.876;2022-11-20T08:58:30;8.20;99.90
61151;DHT22;47029;50.994;2.876;2022-11-20T09:00:56;8.20;99.90
61151;DHT22;47029;50.994;2.876;2022-11-20T09:03:22;8.30;99.90
61151;DHT22;47029;50.994;2.876;2022-11-20T09:05:48;8.30;99.90
61151;DHT22;47029;50.994;2.876;2022-11-20T09:08:15;8.30;99.90
61151;DHT22;47029;50.994;2.876;2022-11-20T09:10:41;8.40;99.90
61151;DHT22;47029;50.994;2.876;2022-11-20T09:13:07;9.90;99.90
61151;DHT22;47029;50.994;2.876;2022-11-20T09:15:33;7.70;99.90
61151;DHT22;47029;50.994;2.876;2022-11-20T09:18:02;8.00;99.90
61151;DHT22;47029;50.994;2.876;2022-11-20T09:20:29;8.50;99.90
61151;DHT22;47029;50.994;2.876;2022-11-20T09:22:57;8.50;99.90
61151;DHT22;47029;50.994;2.876;2022-11-20T09:25:23;8.40;99.90
61151;DHT22;47029;50.994;2.876;2022-11-20T09:27:55;8.50;99.90
61151;DHT22;47029;50.994;2.876;2022-11-20T09:30:21;8.40;99.90
61151;DHT22;47029;50.994;2.876;2022-11-20T09:32:47;9.80;99.90
61151;DHT22;47029;50.994;2.876;2022-11-20T09:35:13;8.60;99.90
61151;DHT22;47029;50.994;2.876;2022-11-20T09:37:40;8.50;99.90
61151;DHT22;47029;50.994;2.876;2022-11-20T09:40:06;8.60;99.90
61151;DHT22;47029;50.994;2.876;2022-11-20T09:43:03;8.60;99.90
61151;DHT22;47029;50.994;2.876;2022-11-20T09:46:09;8.50;99.90
61151;DHT22;47029;50.994;2.876;2022-11-20T09:48:47;8.50;99.90
61151;DHT22;47029;50.994;2.876;2022-11-20T09:51:36;8.40;99.90
61151;DHT22;47029;50.994;2.876;2022-11-20T09:54:20;8.40;99.90
61151;DHT22;47029;50.994;2.876;2022-11-20T09:57:05;8.70;99.90
61151;DHT22;47029;50.994;2.876;2022-11-20T10:02:02;8.70;99.90
61151;DHT22;47029;50.994;2.876;2022-11-20T10:04:33;8.10;99.90
61151;DHT22;47029;50.994;2.876;2022-11-20T10:07:07;9.20;99.90
61151;DHT22;47029;50.994;2.876;2022-11-20T10:09:40;8.70;99.90
61151;DHT22;47029;50.994;2.876;2022-11-20T10:12:13;8.80;99.90
61151;DHT22;47029;50.994;2.876;2022-11-20T10:20:23;9.30;99.90
61151;DHT22;47029;50.994;2.876;2022-11-20T10:31:00;10.70;99.90
61151;DHT22;47029;50.994;2.876;2022-11-20T10:33:31;8.90;99.90
61151;DHT22;47029;50.994;2.876;2022-11-20T10:38:40;8.40;99.90
61151;DHT22;47029;50.994;2.876;2022-11-20T10:41:20;8.30;99.90
61151;DHT22;47029;50.994;2.876;2022-11-20T10:44:03;10.10;99.90
61151;DHT22;47029;50.994;2.876;2022-11-20T10:46:39;8.20;99.90
61151;DHT22;47029;50.994;2.876;2022-11-20T10:49:17;8.30;99.90
61151;DHT22;47029;50.994;2.876;2022-11-20T10:57:25;8.50;99.90
61151;DHT22;47029;50.994;2.876;2022-11-20T11:02:35;8.50;99.90
61151;DHT22;47029;50.994;2.876;2022-11-20T11:07:44;8.50;99.90
61151;DHT22;47029;50.994;2.876;2022-11-20T11:10:20;9.70;99.90
61151;DHT22;47029;50.994;2.876;2022-11-20T11:12:48;8.90;99.90
61151;DHT22;47029;50.994;2.876;2022-11-20T11:15:29;8.50;99.90
61151;DHT22;47029;50.994;2.876;2022-11-20T11:17:55;8.50;99.90
61151;DHT22;47029;50.994;2.876;2022-11-20T11:20:24;8.50;99.90
61151;DHT22;47029;50.994;2.876;2022-11-20T11:22:55;8.40;99.90
61151;DHT22;47029;50.994;2.876;2022-11-20T11:25:30;8.40;99.90
61151;DHT22;47029;50.994;2.876;2022-11-20T11:28:01;8.50;99.90
61151;DHT22;47029;50.994;2.876;2022-11-20T11:30:28;9.90;99.90
61151;DHT22;47029;50.994;2.876;2022-11-20T11:33:26;8.40;99.90
61151;DHT22;47029;50.994;2.876;2022-11-20T11:35:53;8.30;99.90
61151;DHT22;47029;50.994;2.876;2022-11-20T11:41:00;8.20;99.90
61151;DHT22;47029;50.994;2.876;2022-11-20T11:43:29;8.20;99.90
61151;DHT22;47029;50.994;2.876;2022-11-20T11:49:21;9.50;99.90
61151;DHT22;47029;50.994;2.876;2022-11-20T11:52:05;8.50;99.90
61151;DHT22;47029;50.994;2.876;2022-11-20T11:54:57;8.50;99.90
61151;DHT22;47029;50.994;2.876;2022-11-20T11:57:38;8.50;99.90
61151;DHT22;47029;50.994;2.876;2022-11-20T12:00:13;8.60;99.90
61151;DHT22;47029;50.994;2.876;2022-11-20T12:05:28;8.60;99.90
61151;DHT22;47029;50.994;2.876;2022-11-20T12:11:45;8.70;99.90
61151;DHT22;47029;50.994;2.876;2022-11-20T12:16:47;7.60;99.90
61151;DHT22;47029;50.994;2.876;2022-11-20T12:19:14;8.90;99.90
61151;DHT22;47029;50.994;2.876;2022-11-20T12:24:44;9.00;99.90
61151;DHT22;47029;50.994;2.876;2022-11-20T12:27:33;8.80;99.90
61151;DHT22;47029;50.994;2.876;2022-11-20T12:30:11;8.70;99.90
61151;DHT22;47029;50.994;2.876;2022-11-20T12:32:44;8.90;99.90
61151;DHT22;47029;50.994;2.876;2022-11-20T12:40:59;9.20;99.90
61151;DHT22;47029;50.994;2.876;2022-11-20T12:43:31;9.20;99.90
61151;DHT22;47029;50.994;2.876;2022-11-20T13:08:24;10.00;99.90
61151;DHT22;47029;50.994;2.876;2022-11-20T13:18:49;10.20;99.90
61151;DHT22;47029;50.994;2.876;2022-11-20T13:21:20;10.30;99.90
61151;DHT22;47029;50.994;2.876;2022-11-20T13:23:47;10.30;99.90
61151;DHT22;47029;50.994;2.876;2022-11-20T13:26:22;10.40;99.90
61151;DHT22;47029;50.994;2.876;2022-11-20T13:28:59;12.00;99.90
61151;DHT22;47029;50.994;2.876;2022-11-20T13:33:56;10.40;99.90
61151;DHT22;47029;50.994;2.876;2022-11-20T13:36:25;10.50;99.90
61151;DHT22;47029;50.994;2.876;2022-11-20T13:38:54;10.70;99.90
61151;DHT22;47029;50.994;2.876;2022-11-20T13:44:13;9.90;99.90
61151;DHT22;47029;50.994;2.876;2022-11-20T13:46:43;11.00;99.90
61151;DHT22;47029;50.994;2.876;2022-11-20T13:49:47;11.00;99.90
61151;DHT22;47029;50.994;2.876;2022-11-20T13:58:21;11.10;99.90
61151;DHT22;47029;50.994;2.876;2022-11-20T14:01:15;11.10;99.90
61151;DHT22;47029;50.994;2.876;2022-11-20T14:03:42;10.10;99.90
61151;DHT22;47029;50.994;2.876;2022-11-20T14:06:30;11.10;99.90
61151;DHT22;47029;50.994;2.876;2022-11-20T14:08:58;11.20;99.90
61151;DHT22;47029;50.994;2.876;2022-11-20T14:11:29;11.10;99.90
61151;DHT22;47029;50.994;2.876;2022-11-20T14:14:19;12.10;99.90
61151;DHT22;47029;50.994;2.876;2022-11-20T14:16:44;11.00;99.90
61151;DHT22;47029;50.994;2.876;2022-11-20T14:21:46;10.80;99.90
61151;DHT22;47029;50.994;2.876;2022-11-20T14:24:14;11.10;99.90
61151;DHT22;47029;50.994;2.876;2022-11-20T14:26:45;11.00;99.90
61151;DHT22;47029;50.994;2.876;2022-11-20T14:29:20;11.10;99.90
61151;DHT22;47029;50.994;2.876;2022-11-20T14:31:48;11.20;99.90
61151;DHT22;47029;50.994;2.876;2022-11-20T14:34:27;11.10;99.90
61151;DHT22;47029;50.994;2.876;2022-11-20T14:36:59;11.20;99.90
61151;DHT22;47029;50.994;2.876;2022-11-20T14:39:34;11.00;99.90
61151;DHT22;47029;50.994;2.876;2022-11-20T14:42:02;10.20;99.90
61151;DHT22;47029;50.994;2.876;2022-11-20T14:44:33;9.50;99.90
61151;DHT22;47029;50.994;2.876;2022-11-20T14:47:01;11.10;99.90
61151;DHT22;47029;50.994;2.876;2022-11-20T14:49:30;11.10;99.90
61151;DHT22;47029;50.994;2.876;2022-11-20T14:52:02;11.10;99.90
61151;DHT22;47029;50.994;2.876;2022-11-20T14:54:44;11.00;99.90
61151;DHT22;47029;50.994;2.876;2022-11-20T14:57:26;11.20;99.90
61151;DHT22;47029;50.994;2.876;2022-11-20T15:02:42;11.30;99.90
61151;DHT22;47029;50.994;2.876;2022-11-20T15:05:08;11.30;99.90
61151;DHT22;47029;50.994;2.876;2022-11-20T15:07:39;11.30;99.90
61151;DHT22;47029;50.994;2.876;2022-11-20T15:10:19;11.40;99.90
61151;DHT22;47029;50.994;2.876;2022-11-20T15:12:52;11.20;99.90
61151;DHT22;47029;50.994;2.876;2022-11-20T15:18:12;10.90;99.90
61151;DHT22;47029;50.994;2.876;2022-11-20T15:20:41;10.80;99.90
61151;DHT22;47029;50.994;2.876;2022-11-20T15:23:14;10.90;99.90
61151;DHT22;47029;50.994;2.876;2022-11-20T15:25:41;10.20;99.90
61151;DHT22;47029;50.994;2.876;2022-11-20T15:28:18;10.80;99.90
61151;DHT22;47029;50.994;2.876;2022-11-20T15:30:48;10.80;99.90
61151;DHT22;47029;50.994;2.876;2022-11-20T15:33:16;10.70;99.90
61151;DHT22;47029;50.994;2.876;2022-11-20T15:35:43;10.70;99.90
61151;DHT22;47029;50.994;2.876;2022-11-20T15:38:09;10.60;99.90
61151;DHT22;47029;50.994;2.876;2022-11-20T15:40:35;10.70;99.90
61151;DHT22;47029;50.994;2.876;2022-11-20T15:43:02;10.60;99.90
61151;DHT22;47029;50.994;2.876;2022-11-20T15:45:50;10.60;99.90
61151;DHT22;47029;50.994;2.876;2022-11-20T15:48:23;9.90;99.90
61151;DHT22;47029;50.994;2.876;2022-11-20T15:51:21;10.40;99.90
61151;DHT22;47029;50.994;2.876;2022-11-20T15:53:50;10.50;99.90
61151;DHT22;47029;50.994;2.876;2022-11-20T15:56:16;10.60;99.90
61151;DHT22;47029;50.994;2.876;2022-11-20T15:58:42;10.50;99.90
61151;DHT22;47029;50.994;2.876;2022-11-20T16:01:14;10.50;99.90
61151;DHT22;47029;50.994;2.876;2022-11-20T16:03:40;10.50;99.90
61151;DHT22;47029;50.994;2.876;2022-11-20T16:06:06;10.50;99.90
61151;DHT22;47029;50.994;2.876;2022-11-20T16:08:32;10.50;99.90
61151;DHT22;47029;50.994;2.876;2022-11-20T16:10:58;10.30;99.90
61151;DHT22;47029;50.994;2.876;2022-11-20T16:13:24;10.40;99.90
61151;DHT22;47029;50.994;2.876;2022-11-20T16:16:32;10.40;99.90
61151;DHT22;47029;50.994;2.876;2022-11-20T16:18:59;10.40;99.90
61151;DHT22;47029;50.994;2.876;2022-11-20T16:21:28;10.40;99.90
61151;DHT22;47029;50.994;2.876;2022-11-20T16:24:00;10.20;99.90
61151;DHT22;47029;50.994;2.876;2022-11-20T16:26:27;10.20;99.90
61151;DHT22;47029;50.994;2.876;2022-11-20T16:28:53;10.30;99.90
61151;DHT22;47029;50.994;2.876;2022-11-20T16:31:20;10.50;99.90
61151;DHT22;47029;50.994;2.876;2022-11-20T16:33:54;10.20;99.90
61151;DHT22;47029;50.994;2.876;2022-11-20T16:36:21;10.10;99.90
61151;DHT22;47029;50.994;2.876;2022-11-20T16:38:52;10.20;99.90
61151;DHT22;47029;50.994;2.876;2022-11-20T16:41:18;10.40;99.90
61151;DHT22;47029;50.994;2.876;2022-11-20T16:43:48;10.40;99.90
61151;DHT22;47029;50.994;2.876;2022-11-20T16:46:15;10.50;99.90
61151;DHT22;47029;50.994;2.876;2022-11-20T16:48:41;10.40;99.90
61151;DHT22;47029;50.994;2.876;2022-11-20T16:51:09;10.60;99.90
61151;DHT22;47029;50.994;2.876;2022-11-20T16:53:35;10.40;99.90
61151;DHT22;47029;50.994;2.876;2022-11-20T16:56:16;10.30;99.90
61151;DHT22;47029;50.994;2.876;2022-11-20T16:58:43;10.20;99.90
61151;DHT22;47029;50.994;2.876;2022-11-20T17:01:11;10.10;99.90
61151;DHT22;47029;50.994;2.876;2022-11-20T17:03:39;10.80;99.90
61151;DHT22;47029;50.994;2.876;2022-11-20T17:06:19;10.00;99.90
61151;DHT22;47029;50.994;2.876;2022-11-20T17:08:46;10.00;99.90
61151;DHT22;47029;50.994;2.876;2022-11-20T17:11:14;10.00;99.90
61151;DHT22;47029;50.994;2.876;2022-11-20T17:13:41;12.00;99.90
61151;DHT22;47029;50.994;2.876;2022-11-20T17:16:12;9.90;99.90
61151;DHT22;47029;50.994;2.876;2022-11-20T17:18:38;10.00;99.90
61151;DHT22;47029;50.994;2.876;2022-11-20T17:21:05;10.10;99.90
61151;DHT22;47029;50.994;2.876;2022-11-20T17:23:37;10.00;99.90
61151;DHT22;47029;50.994;2.876;2022-11-20T17:26:12;9.90;99.90
61151;DHT22;47029;50.994;2.876;2022-11-20T17:28:39;9.90;99.90
61151;DHT22;47029;50.994;2.876;2022-11-20T17:31:12;9.90;99.90
61151;DHT22;47029;50.994;2.876;2022-11-20T17:33:41;9.90;99.90
61151;DHT22;47029;50.994;2.876;2022-11-20T17:36:09;9.80;99.90
61151;DHT22;47029;50.994;2.876;2022-11-20T17:38:35;9.00;99.90
61151;DHT22;47029;50.994;2.876;2022-11-20T17:41:20;9.70;99.90
61151;DHT22;47029;50.994;2.876;2022-11-20T17:43:48;9.60;99.90
61151;DHT22;47029;50.994;2.876;2022-11-20T17:46:19;9.20;99.90
61151;DHT22;47029;50.994;2.876;2022-11-20T17:48:46;9.50;99.90